Time;durP1;ratioP1;P1;durP2;ratioP2;P2;SDS_P1;SDS_P2;PMS_P1;PMS_P2;Temp;Humidity;BMP_temperature;BMP_pressure;BME280_temperature;BME280_humidity;BME280_pressure;Samples;Min_cycle;Max_cycle;Signal;HPM_P1;HPM_P2
2021/05/10 00:01:11;;;;;;;1.13;1.02;;;21.80;54.40;;;;;;5057214;28;20056;-53
2021/05/10 00:03:36;;;;;;;1.35;1.02;;;21.90;54.40;;;;;;5056595;28;20395;-57
2021/05/10 00:06:02;;;;;;;1.92;1.35;;;21.80;54.40;;;;;;5057319;28;20021;-53
2021/05/10 00:08:28;;;;;;;1.30;1.20;;;21.90;54.50;;;;;;5056814;28;20064;-50
2021/05/10 00:10:54;;;;;;;1.42;1.30;;;21.80;54.60;;;;;;5056876;28;20070;-54
2021/05/10 00:13:21;;;;;;;1.85;1.17;;;21.80;54.60;;;;;;5056849;28;20031;-50
2021/05/10 00:15:47;;;;;;;1.35;1.20;;;21.80;54.70;;;;;;5056602;28;20028;-50
2021/05/10 00:18:14;;;;;;;1.75;1.55;;;21.80;54.80;;;;;;5057004;28;20017;-53
2021/05/10 00:20:41;;;;;;;1.02;1.00;;;21.80;54.80;;;;;;5056685;28;20025;-48
2021/05/10 00:23:08;;;;;;;1.67;1.40;;;21.80;54.80;;;;;;5056720;28;20056;-55
2021/05/10 00:25:34;;;;;;;1.73;1.23;;;21.80;54.90;;;;;;5056551;28;20223;-56
2021/05/10 00:28:00;;;;;;;1.70;1.60;;;21.80;54.90;;;;;;5056184;28;20036;-53
2021/05/10 00:30:26;;;;;;;1.35;1.25;;;21.80;54.90;;;;;;5038830;28;20017;-50
2021/05/10 00:32:51;;;;;;;1.85;1.13;;;21.80;55.00;;;;;;5056444;28;20033;-56
2021/05/10 00:35:18;;;;;;;1.85;1.60;;;21.80;55.00;;;;;;5056613;28;20048;-53
2021/05/10 00:37:44;;;;;;;1.38;1.27;;;21.80;55.10;;;;;;5056618;28;20072;-55
2021/05/10 00:40:12;;;;;;;2.47;1.23;;;21.80;55.70;;;;;;5055171;28;20387;-58
2021/05/10 00:42:38;;;;;;;2.17;1.25;;;21.80;55.10;;;;;;5056268;28;20033;-51
2021/05/10 00:45:05;;;;;;;1.73;1.25;;;21.70;55.10;;;;;;5055811;28;20029;-53
2021/05/10 00:47:31;;;;;;;3.15;1.13;;;21.80;55.20;;;;;;5056423;28;20033;-52
2021/05/10 00:49:56;;;;;;;1.60;1.40;;;21.80;55.30;;;;;;5056168;28;20025;-51
2021/05/10 00:52:22;;;;;;;1.63;1.40;;;21.70;55.20;;;;;;5056308;28;20039;-52
2021/05/10 00:54:48;;;;;;;2.30;1.65;;;21.70;55.80;;;;;;5056272;28;20068;-52
2021/05/10 00:57:14;;;;;;;1.40;1.30;;;21.70;55.20;;;;;;5056118;28;20412;-50
2021/05/10 00:59:41;;;;;;;1.65;1.55;;;21.70;55.20;;;;;;5055612;28;20053;-54
2021/05/10 01:02:06;;;;;;;1.95;1.48;;;21.70;55.30;;;;;;5055957;28;20096;-51
2021/05/10 01:04:32;;;;;;;1.60;1.48;;;21.70;55.30;;;;;;5056115;28;20053;-51
2021/05/10 01:06:58;;;;;;;2.30;1.70;;;21.70;55.30;;;;;;5056182;28;20036;-52
2021/05/10 01:09:23;;;;;;;1.58;1.48;;;21.70;55.30;;;;;;5055852;28;20029;-51
2021/05/10 01:11:49;;;;;;;1.50;1.40;;;21.70;55.30;;;;;;5055539;28;20147;-53
2021/05/10 01:14:14;;;;;;;1.63;1.20;;;21.70;55.30;;;;;;5055610;28;20063;-52
2021/05/10 01:16:40;;;;;;;2.15;1.67;;;21.70;55.40;;;;;;5055245;28;20167;-53
2021/05/10 01:19:06;;;;;;;1.60;1.50;;;21.70;55.30;;;;;;5056019;28;20414;-54
2021/05/10 01:21:33;;;;;;;1.45;1.23;;;21.70;55.40;;;;;;5055570;28;20040;-52
2021/05/10 01:23:59;;;;;;;1.85;1.50;;;21.70;55.40;;;;;;5055832;28;20025;-55
2021/05/10 01:26:25;;;;;;;1.73;1.30;;;21.70;55.40;;;;;;5055723;28;20342;-50
2021/05/10 01:28:51;;;;;;;2.10;1.33;;;21.70;55.40;;;;;;5055428;28;20119;-50
2021/05/10 01:31:16;;;;;;;1.48;1.38;;;21.70;55.40;;;;;;5055307;28;20025;-53
2021/05/10 01:33:42;;;;;;;1.60;1.50;;;21.70;55.40;;;;;;5055002;28;20103;-54
2021/05/10 01:36:08;;;;;;;1.67;1.58;;;21.70;55.40;;;;;;5055638;28;20017;-49
2021/05/10 01:38:34;;;;;;;2.50;1.40;;;21.70;55.40;;;;;;5054912;28;20108;-54
2021/05/10 01:40:59;;;;;;;1.85;1.40;;;21.70;55.40;;;;;;5055008;28;20095;-50
2021/05/10 01:43:25;;;;;;;1.48;1.38;;;21.70;55.40;;;;;;5055127;28;20498;-51
2021/05/10 01:45:50;;;;;;;1.90;1.40;;;21.70;55.40;;;;;;5055625;28;20029;-54
2021/05/10 01:48:16;;;;;;;1.05;1.05;;;21.70;55.40;;;;;;5054629;28;20037;-49
2021/05/10 01:50:44;;;;;;;1.42;1.30;;;21.70;55.40;;;;;;5055235;28;20025;-50
2021/05/10 01:53:10;;;;;;;1.30;1.20;;;21.70;55.40;;;;;;5055048;28;20036;-52
2021/05/10 01:55:37;;;;;;;1.60;1.50;;;21.70;55.40;;;;;;5055316;28;20021;-52
2021/05/10 01:58:04;;;;;;;1.90;1.38;;;21.70;55.40;;;;;;5054747;28;20108;-50
2021/05/10 02:00:32;;;;;;;2.10;1.65;;;21.70;55.40;;;;;;5054753;28;20036;-53
2021/05/10 02:03:00;;;;;;;1.75;1.33;;;21.70;55.40;;;;;;5054935;28;20021;-54
2021/05/10 02:05:26;;;;;;;1.50;1.40;;;21.70;55.40;;;;;;5054939;28;20126;-55
2021/05/10 02:07:53;;;;;;;1.88;1.15;;;21.70;55.40;;;;;;5054930;28;20143;-51
2021/05/10 02:10:26;;;;;;;1.40;1.30;;;21.60;55.30;;;;;;5055041;28;20059;-55
2021/05/10 02:13:06;;;;;;;1.50;1.40;;;21.60;55.30;;;;;;5054877;28;20028;-54
2021/05/10 02:15:34;;;;;;;1.00;0.95;;;21.60;55.30;;;;;;5037603;28;20594;-50
2021/05/10 02:18:00;;;;;;;1.52;1.30;;;21.60;55.30;;;;;;5055138;28;20116;-51
2021/05/10 02:20:26;;;;;;;1.38;1.27;;;21.70;55.30;;;;;;5054666;28;20099;-56
2021/05/10 02:22:56;;;;;;;1.25;1.15;;;21.60;55.20;;;;;;5054808;28;20021;-50
2021/05/10 02:25:25;;;;;;;1.10;1.08;;;21.60;55.20;;;;;;5054732;28;20025;-54
2021/05/10 02:27:51;;;;;;;0.98;0.98;;;21.60;55.20;;;;;;5054492;28;20044;-52
2021/05/10 02:30:18;;;;;;;1.27;1.17;;;21.60;55.10;;;;;;5054552;28;20424;-52
2021/05/10 02:32:44;;;;;;;1.17;1.08;;;21.60;55.10;;;;;;5054607;28;20040;-53
2021/05/10 02:35:10;;;;;;;1.20;0.93;;;21.60;55.10;;;;;;5054267;28;20021;-55
2021/05/10 02:37:36;;;;;;;2.45;1.23;;;21.60;55.00;;;;;;5054302;28;20029;-57
2021/05/10 02:40:04;;;;;;;1.30;1.20;;;21.60;55.00;;;;;;5054212;28;20064;-52
2021/05/10 02:42:30;;;;;;;1.10;1.00;;;21.60;54.90;;;;;;5054616;28;20044;-51
2021/05/10 02:44:55;;;;;;;1.17;1.08;;;21.60;54.90;;;;;;5054769;28;20022;-49
2021/05/10 02:47:21;;;;;;;1.30;1.20;;;21.60;54.90;;;;;;5054126;28;20036;-55
2021/05/10 02:49:46;;;;;;;0.90;0.90;;;21.60;54.90;;;;;;5054591;28;20456;-55
2021/05/10 02:52:11;;;;;;;2.55;1.35;;;21.60;54.80;;;;;;5054290;28;20436;-55
2021/05/10 02:54:37;;;;;;;1.10;1.00;;;21.60;54.80;;;;;;5054585;28;20104;-54
2021/05/10 02:57:03;;;;;;;3.28;1.30;;;21.60;54.80;;;;;;5054400;28;20017;-56
2021/05/10 02:59:28;;;;;;;1.02;0.95;;;21.60;54.80;;;;;;5054259;28;20036;-56
2021/05/10 03:01:54;;;;;;;0.85;0.85;;;21.60;54.80;;;;;;5054462;28;20028;-51
2021/05/10 03:04:19;;;;;;;1.35;1.00;;;21.60;54.80;;;;;;5056815;28;20025;-51
2021/05/10 03:06:45;;;;;;;2.53;0.80;;;21.60;54.70;;;;;;5057754;28;20025;-55
2021/05/10 03:09:10;;;;;;;1.00;0.93;;;21.60;54.70;;;;;;5058063;28;20112;-57
2021/05/10 03:11:36;;;;;;;1.00;1.00;;;21.60;54.70;;;;;;5058041;28;20106;-53
2021/05/10 03:14:02;;;;;;;2.10;1.10;;;21.60;54.60;;;;;;5058241;28;20449;-51
2021/05/10 03:16:27;;;;;;;1.10;1.00;;;21.60;54.60;;;;;;5058274;28;20107;-49
2021/05/10 03:18:53;;;;;;;1.13;0.93;;;21.60;54.60;;;;;;5058178;28;20098;-51
2021/05/10 03:21:18;;;;;;;1.35;1.00;;;21.60;54.50;;;;;;5057567;28;20041;-55
2021/05/10 03:23:44;;;;;;;0.98;0.98;;;21.60;54.50;;;;;;5057906;28;20036;-52
2021/05/10 03:26:10;;;;;;;2.35;1.08;;;21.60;54.50;;;;;;5057458;28;20028;-52
2021/05/10 03:28:35;;;;;;;1.35;1.17;;;21.60;54.50;;;;;;5057859;28;20070;-51
2021/05/10 03:31:01;;;;;;;1.02;1.00;;;21.60;54.40;;;;;;5057885;28;20060;-55
2021/05/10 03:33:26;;;;;;;0.80;0.80;;;21.60;54.40;;;;;;5057620;28;20104;-52
2021/05/10 03:35:52;;;;;;;1.33;1.00;;;21.60;54.40;;;;;;5057382;28;20333;-49
2021/05/10 03:38:17;;;;;;;0.68;0.68;;;21.60;54.40;;;;;;5057607;28;20037;-51
2021/05/10 03:40:43;;;;;;;0.93;0.75;;;21.60;54.50;;;;;;5057891;28;20073;-51
2021/05/10 03:43:08;;;;;;;1.10;1.00;;;21.50;55.10;;;;;;5057543;28;20515;-49
2021/05/10 03:45:35;;;;;;;1.10;0.80;;;21.50;54.40;;;;;;5057663;28;20029;-49
2021/05/10 03:48:01;;;;;;;1.67;0.88;;;21.50;54.40;;;;;;5057442;28;20095;-50
2021/05/10 03:50:26;;;;;;;0.80;0.80;;;21.50;54.50;;;;;;5057308;28;20025;-52
2021/05/10 03:52:52;;;;;;;1.13;1.02;;;21.50;54.40;;;;;;5056708;28;20036;-52
2021/05/10 03:55:20;;;;;;;1.02;1.00;;;21.60;54.50;;;;;;5057181;28;20025;-48
2021/05/10 03:57:46;;;;;;;1.58;0.80;;;21.50;54.40;;;;;;5057168;28;20370;-56
2021/05/10 04:00:14;;;;;;;1.00;0.90;;;21.50;54.40;;;;;;5057389;28;20053;-50
2021/05/10 04:02:40;;;;;;;0.88;0.88;;;21.50;54.40;;;;;;5056931;28;20025;-57
2021/05/10 04:15:29;;;;;;;1.05;0.70;;;21.50;54.30;;;;;;5056500;28;20048;-53
2021/05/10 04:17:54;;;;;;;2.17;0.80;;;21.50;54.20;;;;;;5056897;28;20025;-50
2021/05/10 04:20:20;;;;;;;2.17;1.10;;;21.50;54.20;;;;;;5056764;28;20029;-54
2021/05/10 04:22:45;;;;;;;2.08;1.10;;;21.50;54.20;;;;;;5056694;28;20021;-54
2021/05/10 04:25:11;;;;;;;1.48;1.02;;;21.50;54.20;;;;;;5056341;28;20029;-51
2021/05/10 04:27:37;;;;;;;1.80;1.08;;;21.50;54.80;;;;;;5056412;28;20076;-51
2021/05/10 04:30:03;;;;;;;1.95;1.00;;;21.50;54.80;;;;;;5056652;28;20029;-56
2021/05/10 04:32:29;;;;;;;1.40;0.80;;;21.50;54.10;;;;;;5056255;28;20025;-54
2021/05/10 04:34:54;;;;;;;1.10;1.00;;;21.50;54.10;;;;;;5056433;28;20029;-52
2021/05/10 04:37:20;;;;;;;0.93;0.60;;;21.50;54.10;;;;;;5056900;28;20028;-53
2021/05/10 04:39:46;;;;;;;1.08;0.73;;;21.50;54.10;;;;;;5055874;28;20056;-53
2021/05/10 04:42:11;;;;;;;0.70;0.70;;;21.60;54.10;;;;;;5055988;28;20375;-53
2021/05/10 04:44:37;;;;;;;0.70;0.70;;;21.50;54.00;;;;;;5056276;28;20499;-55
2021/05/10 04:47:02;;;;;;;0.80;0.80;;;21.50;54.00;;;;;;5056585;28;20028;-49
2021/05/10 04:49:28;;;;;;;0.73;0.73;;;21.50;54.00;;;;;;5056224;28;20025;-50
2021/05/10 04:51:53;;;;;;;0.80;0.77;;;21.50;53.90;;;;;;5056147;28;20044;-53
2021/05/10 04:54:19;;;;;;;0.93;0.90;;;21.50;54.60;;;;;;5056297;28;20375;-55
2021/05/10 04:56:44;;;;;;;0.75;0.75;;;21.50;53.90;;;;;;5056133;28;20090;-53
2021/05/10 04:59:10;;;;;;;1.02;0.93;;;21.50;53.90;;;;;;5056107;28;20021;-53
2021/05/10 05:01:35;;;;;;;1.63;0.90;;;21.60;53.90;;;;;;5055899;28;20445;-52
2021/05/10 05:04:01;;;;;;;0.85;0.85;;;21.50;53.80;;;;;;5055518;28;20032;-53
2021/05/10 05:06:26;;;;;;;2.10;0.95;;;21.50;53.80;;;;;;5056110;28;20025;-57
2021/05/10 05:08:52;;;;;;;1.10;1.00;;;21.50;53.80;;;;;;5055482;28;20036;-56
2021/05/10 05:11:17;;;;;;;3.05;0.75;;;21.60;53.90;;;;;;5055795;28;20025;-55
2021/05/10 05:13:43;;;;;;;3.05;1.00;;;21.60;54.00;;;;;;5055808;28;20021;-57
2021/05/10 05:16:09;;;;;;;3.22;1.00;;;21.60;54.20;;;;;;5055381;28;20087;-54
2021/05/10 05:18:34;;;;;;;2.35;1.05;;;21.60;54.20;;;;;;5055442;28;20455;-57
2021/05/10 05:21:00;;;;;;;1.15;0.90;;;21.60;54.20;;;;;;5055428;28;20103;-51
2021/05/10 05:23:26;;;;;;;2.13;1.08;;;21.60;54.20;;;;;;5055285;28;20036;-57
2021/05/10 05:25:59;;;;;;;3.20;1.17;;;21.60;54.20;;;;;;5054384;28;20079;-56
2021/05/10 05:28:27;;;;;;;2.15;0.75;;;21.60;54.20;;;;;;5055448;28;20119;-56
2021/05/10 05:30:57;;;;;;;4.50;0.88;;;21.60;54.20;;;;;;5055419;28;20049;-55
2021/05/10 05:33:23;;;;;;;3.40;1.10;;;21.60;54.30;;;;;;5055384;28;20017;-57
2021/05/10 05:35:49;;;;;;;1.60;0.80;;;21.60;54.40;;;;;;5055474;28;20036;-56
2021/05/10 05:38:14;;;;;;;8.25;0.88;;;21.60;54.40;;;;;;5053918;28;20032;-55
2021/05/10 05:40:42;;;;;;;3.13;0.70;;;21.60;54.50;;;;;;5054352;28;20463;-57
2021/05/10 05:43:08;;;;;;;3.38;0.88;;;21.60;54.60;;;;;;5054901;28;20025;-55
2021/05/10 05:45:38;;;;;;;5.03;1.13;;;21.60;54.70;;;;;;5055232;28;20032;-57
2021/05/10 05:48:06;;;;;;;0.98;0.57;;;21.60;54.70;;;;;;5055023;28;20436;-58
2021/05/10 05:50:32;;;;;;;2.13;0.75;;;21.60;54.70;;;;;;5054679;28;20451;-57
2021/05/10 05:52:58;;;;;;;1.65;1.00;;;21.60;54.80;;;;;;5055069;28;20032;-57
2021/05/10 05:55:24;;;;;;;2.92;0.90;;;21.60;54.90;;;;;;5055254;28;20025;-56
2021/05/10 05:57:49;;;;;;;1.95;0.73;;;21.60;54.90;;;;;;5054402;28;20103;-55
2021/05/10 06:00:16;;;;;;;0.60;0.60;;;21.70;55.00;;;;;;5055284;28;20036;-54
2021/05/10 06:02:42;;;;;;;3.50;0.90;;;21.60;55.00;;;;;;5054853;28;20436;-57
2021/05/10 06:05:12;;;;;;;2.50;0.90;;;21.60;55.10;;;;;;5054551;28;20100;-56
2021/05/10 06:07:42;;;;;;;1.95;0.77;;;21.60;55.20;;;;;;5054867;28;20044;-56
2021/05/10 06:10:09;;;;;;;1.10;0.82;;;21.70;55.20;;;;;;5054398;28;20036;-57
2021/05/10 06:12:35;;;;;;;1.23;0.95;;;21.70;55.20;;;;;;5055108;28;20069;-54
2021/05/10 06:15:01;;;;;;;0.73;0.70;;;21.70;55.20;;;;;;5054922;28;20025;-57
2021/05/10 06:17:26;;;;;;;2.15;0.85;;;21.70;55.20;;;;;;5054708;28;20120;-55
2021/05/10 06:19:52;;;;;;;2.10;1.20;;;21.70;55.20;;;;;;5054727;28;20087;-54
2021/05/10 06:22:18;;;;;;;5.60;1.23;;;21.70;55.20;;;;;;5054799;28;20029;-49
2021/05/10 06:24:43;;;;;;;3.60;1.02;;;21.70;55.30;;;;;;5054697;28;20071;-56
2021/05/10 06:27:09;;;;;;;1.63;0.70;;;21.70;55.20;;;;;;5054388;28;20028;-49
2021/05/10 06:29:35;;;;;;;3.83;0.82;;;21.70;55.10;;;;;;5054637;28;20448;-50
2021/05/10 06:32:00;;;;;;;2.00;0.70;;;21.70;55.00;;;;;;5054634;28;20040;-51
2021/05/10 06:34:25;;;;;;;2.72;0.82;;;21.70;55.00;;;;;;5054558;28;20025;-48
2021/05/10 06:36:51;;;;;;;4.40;0.80;;;21.70;54.90;;;;;;5054268;28;20367;-49
2021/05/10 06:39:16;;;;;;;2.88;0.60;;;21.70;54.80;;;;;;5057423;28;20175;-53
2021/05/10 06:41:42;;;;;;;1.20;0.52;;;21.70;54.70;;;;;;5058226;28;20033;-51
2021/05/10 06:44:07;;;;;;;2.00;0.80;;;21.70;54.70;;;;;;5058302;28;20057;-48
2021/05/10 06:46:33;;;;;;;1.88;0.85;;;21.80;54.70;;;;;;5058452;28;20358;-51
2021/05/10 06:48:58;;;;;;;1.55;0.70;;;21.80;54.60;;;;;;5058439;28;20037;-54
2021/05/10 06:51:24;;;;;;;1.65;0.75;;;21.80;54.60;;;;;;5058363;28;20033;-54
2021/05/10 06:53:50;;;;;;;2.05;0.93;;;21.80;54.60;;;;;;5058337;28;20029;-52
2021/05/10 06:56:15;;;;;;;3.50;0.80;;;21.80;54.70;;;;;;5058126;28;20464;-55
2021/05/10 06:58:41;;;;;;;2.33;0.80;;;21.80;54.70;;;;;;5056857;28;20029;-57
2021/05/10 07:01:06;;;;;;;2.47;0.75;;;21.80;54.70;;;;;;5037591;28;20052;-54
2021/05/10 07:03:32;;;;;;;4.95;1.17;;;21.80;54.80;;;;;;5037458;28;20014;-52
2021/05/10 07:05:57;;;;;;;1.92;0.77;;;21.80;54.80;;;;;;5038041;28;20035;-50
2021/05/10 07:08:23;;;;;;;7.28;0.70;;;21.90;54.90;;;;;;5038228;28;20041;-52
2021/05/10 07:10:52;;;;;;;3.88;0.57;;;21.90;55.00;;;;;;5037895;28;20017;-52
2021/05/10 07:13:18;;;;;;;1.63;0.73;;;21.90;55.00;;;;;;5038039;28;20414;-54
2021/05/10 07:15:44;;;;;;;5.90;1.00;;;21.80;55.00;;;;;;5038131;28;20047;-53
2021/05/10 07:18:14;;;;;;;1.08;0.70;;;21.90;55.10;;;;;;5037972;28;20326;-50
2021/05/10 07:20:42;;;;;;;3.08;0.85;;;21.90;55.10;;;;;;5020559;28;20036;-52
2021/05/10 07:23:08;;;;;;;6.35;0.80;;;21.90;55.20;;;;;;5037518;28;20033;-51
2021/05/10 07:25:40;;;;;;;5.78;0.95;;;21.90;55.20;;;;;;5036985;28;20067;-54
2021/05/10 07:28:05;;;;;;;4.18;0.75;;;21.90;55.20;;;;;;5037915;28;20045;-55
2021/05/10 07:30:31;;;;;;;2.30;0.60;;;21.90;55.30;;;;;;5037832;28;20428;-54
2021/05/10 07:32:56;;;;;;;4.22;0.63;;;21.90;55.20;;;;;;5037940;28;20052;-54
2021/05/10 07:35:22;;;;;;;3.13;0.52;;;21.90;55.10;;;;;;5037413;28;20455;-54
2021/05/10 07:37:47;;;;;;;7.10;0.70;;;21.90;55.00;;;;;;5037646;28;20033;-58
2021/05/10 07:40:17;;;;;;;1.88;0.50;;;21.90;54.80;;;;;;5020404;28;20507;-57
2021/05/10 07:42:43;;;;;;;0.90;0.52;;;21.90;54.70;;;;;;5037316;28;20031;-55
2021/05/10 07:45:09;;;;;;;1.10;0.40;;;21.90;54.70;;;;;;5037790;28;20029;-52
2021/05/10 07:47:34;;;;;;;3.70;0.30;;;21.90;54.50;;;;;;5037025;28;20117;-53
2021/05/10 07:50:00;;;;;;;0.85;0.63;;;21.90;54.40;;;;;;5036994;28;20041;-53
2021/05/10 07:52:28;;;;;;;1.30;0.52;;;21.90;54.30;;;;;;5036985;28;20048;-55
2021/05/10 07:54:53;;;;;;;2.72;0.45;;;22.00;54.30;;;;;;5037728;28;20018;-55
2021/05/10 07:57:19;;;;;;;4.32;0.65;;;22.00;54.20;;;;;;5037284;28;20021;-58
2021/05/10 07:59:47;;;;;;;1.23;0.60;;;22.00;54.20;;;;;;5037368;28;20029;-53
2021/05/10 08:02:12;;;;;;;3.03;0.70;;;22.00;54.10;;;;;;5036863;28;20033;-52
2021/05/10 08:04:38;;;;;;;1.48;0.70;;;22.00;54.10;;;;;;5036807;28;20022;-57
2021/05/10 08:07:04;;;;;;;4.45;0.93;;;22.00;54.00;;;;;;5037112;28;20018;-54
2021/05/10 08:09:29;;;;;;;2.88;0.80;;;22.00;54.10;;;;;;5036866;28;20475;-55
2021/05/10 08:11:55;;;;;;;4.43;0.73;;;22.00;54.20;;;;;;5036519;28;20029;-55
2021/05/10 08:14:20;;;;;;;3.83;0.57;;;22.00;54.30;;;;;;5036618;28;20491;-54
2021/05/10 08:16:48;;;;;;;5.32;0.93;;;22.00;54.40;;;;;;5037025;28;20105;-56
2021/05/10 08:19:14;;;;;;;5.68;1.00;;;22.00;54.40;;;;;;5036874;28;20428;-57
2021/05/10 08:21:40;;;;;;;10.68;0.98;;;22.00;54.50;;;;;;5037174;28;20036;-59
2021/05/10 08:24:07;;;;;;;9.00;1.10;;;22.00;54.70;;;;;;5036970;28;20052;-55
2021/05/10 08:26:33;;;;;;;6.75;1.05;;;22.00;54.70;;;;;;5036757;28;20096;-56
2021/05/10 08:28:58;;;;;;;6.35;1.02;;;22.00;54.70;;;;;;5036702;28;20528;-58
2021/05/10 08:31:24;;;;;;;5.40;0.80;;;22.00;54.90;;;;;;5036587;28;20072;-55
2021/05/10 08:33:50;;;;;;;4.75;1.05;;;22.00;55.10;;;;;;5036703;28;20045;-57
2021/05/10 08:36:17;;;;;;;6.35;1.50;;;22.00;55.20;;;;;;5036720;28;20022;-58
2021/05/10 08:38:43;;;;;;;4.57;0.88;;;22.00;55.30;;;;;;5036430;28;20025;-58
2021/05/10 08:41:09;;;;;;;5.32;0.77;;;22.00;55.30;;;;;;5036292;28;20475;-53
2021/05/10 08:43:36;;;;;;;4.53;0.90;;;22.00;55.30;;;;;;5033117;28;20033;-56
2021/05/10 08:46:04;;;;;;;3.33;0.70;;;22.00;55.40;;;;;;5033834;28;20033;-55
2021/05/10 08:48:29;;;;;;;8.77;1.05;;;22.00;55.40;;;;;;5035628;28;20467;-58
2021/05/10 08:50:55;;;;;;;1.83;0.60;;;22.00;55.50;;;;;;5036446;28;20100;-56
2021/05/10 08:53:38;;;;;;;3.53;1.17;;;22.00;55.50;;;;;;5036120;28;20100;-52
2021/05/10 08:56:05;;;;;;;2.28;0.70;;;22.00;55.60;;;;;;5036188;28;20485;-54
2021/05/10 08:58:37;;;;;;;5.45;1.13;;;22.00;55.60;;;;;;5034906;28;20425;-59
2021/05/10 09:01:04;;;;;;;5.88;0.77;;;22.00;55.60;;;;;;5035231;28;20432;-56
2021/05/10 09:03:39;;;;;;;1.95;0.70;;;22.10;55.70;;;;;;5035931;28;20032;-50
2021/05/10 09:06:08;;;;;;;5.47;0.93;;;22.00;55.70;;;;;;5035941;28;20318;-57
2021/05/10 09:08:41;;;;;;;5.20;0.90;;;22.00;55.70;;;;;;5035476;28;20064;-54
2021/05/10 09:11:09;;;;;;;2.25;0.90;;;22.00;55.70;;;;;;5035828;28;20025;-52
2021/05/10 09:13:40;;;;;;;1.90;0.55;;;22.00;55.80;;;;;;5036135;28;20210;-56
2021/05/10 09:16:06;;;;;;;5.45;0.80;;;22.00;55.70;;;;;;5035611;28;20025;-56
2021/05/10 09:18:32;;;;;;;7.40;0.68;;;22.00;55.70;;;;;;5028993;28;20021;-56
2021/05/10 09:21:15;;;;;;;3.25;0.73;;;22.00;55.70;;;;;;5035817;28;20021;-56
2021/05/10 09:23:41;;;;;;;2.30;1.13;;;22.10;55.80;;;;;;5035815;28;20029;-57
2021/05/10 09:26:08;;;;;;;3.35;0.95;;;22.10;55.80;;;;;;5035530;28;20036;-55
2021/05/10 09:28:42;;;;;;;2.35;0.80;;;22.10;55.80;;;;;;5035302;28;20053;-59
2021/05/10 09:31:11;;;;;;;3.60;0.50;;;22.10;55.80;;;;;;5035596;28;20500;-58
2021/05/10 09:33:45;;;;;;;1.20;0.57;;;22.10;55.90;;;;;;5035427;28;20088;-57
2021/05/10 09:36:44;;;;;;;5.10;0.75;;;22.10;55.80;;;;;;5035610;28;20013;-56
2021/05/10 09:39:37;;;;;;;5.22;0.70;;;22.10;55.90;;;;;;4980654;28;20053;-58
2021/05/10 09:42:06;;;;;;;2.55;0.73;;;22.10;55.80;;;;;;5031873;28;20029;-56
2021/05/10 09:44:45;;;;;;;3.03;0.95;;;22.00;55.70;;;;;;5035438;28;20021;-58
2021/05/10 09:47:11;;;;;;;4.53;0.57;;;22.10;55.80;;;;;;5032640;28;20018;-59
2021/05/10 09:49:48;;;;;;;2.55;0.70;;;22.10;56.50;;;;;;5034859;28;20135;-55
2021/05/10 09:52:22;;;;;;;0.57;0.50;;;22.10;55.80;;;;;;5035041;28;20017;-58
2021/05/10 09:55:01;;;;;;;0.63;0.35;;;22.10;55.80;;;;;;5034776;28;20128;-53
2021/05/10 09:57:27;;;;;;;3.78;0.57;;;22.10;55.80;;;;;;5035242;28;20119;-59
2021/05/10 10:00:20;;;;;;;1.73;0.50;;;22.10;55.80;;;;;;5034490;28;20403;-56
2021/05/10 10:02:46;;;;;;;1.77;0.50;;;22.10;55.80;;;;;;5034832;28;20025;-59
2021/05/10 10:05:12;;;;;;;1.83;0.52;;;22.10;55.70;;;;;;5034859;28;20029;-55
2021/05/10 10:07:38;;;;;;;3.72;0.88;;;22.10;55.70;;;;;;5034732;28;20038;-58
2021/05/10 10:10:05;;;;;;;1.48;0.60;;;22.10;55.80;;;;;;5034842;28;20021;-54
2021/05/10 10:12:32;;;;;;;3.50;1.08;;;22.10;55.80;;;;;;5034182;28;20411;-55
2021/05/10 10:14:57;;;;;;;1.85;0.50;;;22.10;55.90;;;;;;5034779;28;20024;-54
2021/05/10 10:17:23;;;;;;;0.75;0.50;;;22.10;55.90;;;;;;5034411;28;20022;-58
2021/05/10 10:19:52;;;;;;;2.92;0.57;;;22.10;56.10;;;;;;5035085;28;20029;-54
2021/05/10 10:22:20;;;;;;;6.18;0.63;;;22.10;56.00;;;;;;5034745;28;20724;-55
2021/05/10 10:24:48;;;;;;;2.10;0.70;;;22.10;56.00;;;;;;5034462;28;20518;-54
2021/05/10 10:27:14;;;;;;;2.60;0.70;;;22.10;56.10;;;;;;5017044;28;20334;-58
2021/05/10 10:29:42;;;;;;;2.15;0.60;;;22.10;56.10;;;;;;5034495;28;20041;-54
2021/05/10 10:32:10;;;;;;;2.50;0.68;;;22.10;56.10;;;;;;5034583;28;20340;-56
2021/05/10 10:34:41;;;;;;;6.65;0.55;;;22.10;56.10;;;;;;5034812;28;20017;-61
2021/05/10 10:37:07;;;;;;;3.67;0.60;;;22.10;56.20;;;;;;5034574;28;20053;-56
2021/05/10 10:39:34;;;;;;;4.97;0.80;;;22.10;56.20;;;;;;5034363;28;20057;-52
2021/05/10 10:42:04;;;;;;;5.45;1.00;;;22.10;56.10;;;;;;5034521;28;20045;-53
2021/05/10 10:44:43;;;;;;;7.53;0.80;;;22.10;55.80;;;;;;5034791;28;20022;-56
2021/05/10 10:47:11;;;;;;;2.30;1.00;;;22.10;55.70;;;;;;5034530;28;20066;-50
2021/05/10 10:49:39;;;;;;;3.58;0.80;;;22.00;55.30;;;;;;5034392;28;20037;-56
2021/05/10 10:52:23;;;;;;;5.13;0.70;;;22.00;55.40;;;;;;5016853;28;20184;-53
2021/05/10 10:55:12;;;;;;;6.93;0.90;;;22.10;55.40;;;;;;5034362;28;20037;-53
2021/05/10 10:57:37;;;;;;;4.22;0.70;;;22.00;55.30;;;;;;5034410;28;20033;-59
2021/05/10 11:00:04;;;;;;;1.38;1.02;;;22.00;55.30;;;;;;5016674;28;20025;-52
2021/05/10 11:02:54;;;;;;;1.27;0.70;;;22.00;55.40;;;;;;5034268;28;20360;-51
2021/05/10 11:05:23;;;;;;;4.38;0.77;;;22.00;55.40;;;;;;5033994;28;20100;-54
2021/05/10 11:08:07;;;;;;;3.10;1.00;;;22.00;55.30;;;;;;5034363;28;20029;-54
2021/05/10 11:10:56;;;;;;;1.20;0.60;;;22.00;55.30;;;;;;5034023;28;20124;-52
2021/05/10 11:13:25;;;;;;;1.55;0.70;;;22.00;55.40;;;;;;5034672;28;20056;-55
2021/05/10 11:15:51;;;;;;;1.33;0.80;;;22.00;55.40;;;;;;5034267;28;20429;-57
2021/05/10 11:18:37;;;;;;;3.20;0.73;;;21.90;55.20;;;;;;5034184;28;20072;-56
2021/05/10 11:21:05;;;;;;;3.38;0.73;;;21.90;55.30;;;;;;5016946;28;20048;-54
2021/05/10 11:23:32;;;;;;;3.33;0.93;;;21.90;55.40;;;;;;5033653;28;20026;-54
2021/05/10 11:26:00;;;;;;;1.70;0.80;;;21.90;55.30;;;;;;5037305;28;20017;-51
2021/05/10 11:28:26;;;;;;;1.15;0.95;;;21.90;55.40;;;;;;5038057;28;20041;-56
2021/05/10 11:31:10;;;;;;;1.02;0.70;;;21.90;55.30;;;;;;5037915;28;20025;-57
2021/05/10 11:34:11;;;;;;;1.58;0.80;;;21.90;55.40;;;;;;5037855;28;20025;-55
2021/05/10 11:36:48;;;;;;;0.80;0.80;;;21.90;55.40;;;;;;5021298;28;20037;-53
2021/05/10 11:39:20;;;;;;;1.13;0.65;;;21.80;55.40;;;;;;5037726;28;20068;-53
2021/05/10 11:41:46;;;;;;;2.30;0.70;;;21.80;55.50;;;;;;5037214;28;20055;-53
2021/05/10 11:44:29;;;;;;;1.50;0.80;;;21.80;55.50;;;;;;5037636;28;20025;-56
2021/05/10 11:46:56;;;;;;;;;;;21.90;55.50;;;;;;5037616;28;20030;-57
2021/05/10 11:49:41;;;;;;;3.40;0.80;;;21.80;55.50;;;;;;5037159;28;20012;-58
2021/05/10 11:52:24;;;;;;;1.00;0.70;;;21.80;55.50;;;;;;5037525;28;20029;-55
2021/05/10 11:54:56;;;;;;;3.88;0.80;;;21.80;55.50;;;;;;5037143;28;20032;-59
2021/05/10 11:57:24;;;;;;;1.75;0.70;;;21.80;55.50;;;;;;5037398;28;20029;-56
2021/05/10 12:02:30;;;;;;;1.35;0.65;;;21.80;55.50;;;;;;5037349;28;20033;-54
2021/05/10 12:05:00;;;;;;;1.73;0.90;;;21.80;55.50;;;;;;5037314;28;20021;-56
2021/05/10 12:07:28;;;;;;;2.20;0.60;;;21.80;55.50;;;;;;5037028;28;20021;-57
2021/05/10 12:10:02;;;;;;;0.75;0.50;;;21.90;55.60;;;;;;5037094;28;20454;-54
2021/05/10 12:12:41;;;;;;;2.97;0.60;;;21.90;55.60;;;;;;5036727;28;20033;-54
2021/05/10 12:15:26;;;;;;;3.28;0.68;;;21.80;55.60;;;;;;5037126;28;20021;-53
2021/05/10 12:17:57;;;;;;;1.83;0.70;;;21.90;55.70;;;;;;5036991;28;20026;-55
2021/05/10 12:20:28;;;;;;;3.55;1.13;;;21.90;55.70;;;;;;5036797;28;20032;-58
2021/05/10 12:22:55;;;;;;;1.65;0.90;;;21.90;55.90;;;;;;5035578;28;20017;-57
2021/05/10 12:25:37;;;;;;;1.98;0.70;;;21.90;55.90;;;;;;5037011;28;20079;-58
2021/05/10 12:28:03;;;;;;;8.30;0.80;;;21.90;55.90;;;;;;5018962;28;20114;-58
2021/05/10 12:30:47;;;;;;;13.63;0.90;;;21.90;55.80;;;;;;5036518;28;20430;-62
2021/05/10 12:33:28;;;;;;;3.90;1.00;;;22.00;55.90;;;;;;5036644;28;20392;-55
2021/05/10 12:35:56;;;;;;;0.95;0.60;;;22.00;56.00;;;;;;5035198;28;20059;-56
2021/05/10 12:38:30;;;;;;;1.15;0.60;;;22.00;56.00;;;;;;5036623;28;20050;-56
2021/05/10 12:40:58;;;;;;;0.70;0.60;;;22.00;56.00;;;;;;5036112;28;20065;-52
2021/05/10 12:43:25;;;;;;;1.52;0.60;;;22.00;56.00;;;;;;5036694;28;20329;-57
2021/05/10 12:45:56;;;;;;;1.75;0.65;;;22.00;56.00;;;;;;5036629;28;20030;-57
2021/05/10 12:48:26;;;;;;;1.58;0.70;;;22.10;56.10;;;;;;5036454;28;20108;-54
2021/05/10 12:50:54;;;;;;;5.05;0.77;;;22.10;56.20;;;;;;5035478;28;20051;-55
2021/05/10 12:53:47;;;;;;;2.35;0.80;;;22.10;56.40;;;;;;5035646;28;20036;-49
2021/05/10 12:56:14;;;;;;;2.00;0.63;;;22.10;56.40;;;;;;5023102;28;20041;-56
2021/05/10 12:58:47;;;;;;;1.15;0.65;;;22.10;56.40;;;;;;5036212;28;20453;-49
2021/05/10 13:01:17;;;;;;;2.22;0.80;;;22.20;56.60;;;;;;5036136;28;20029;-54
2021/05/10 13:03:44;;;;;;;2.05;0.60;;;22.20;56.60;;;;;;5035604;28;20045;-56
2021/05/10 13:06:15;;;;;;;0.82;0.80;;;22.20;56.70;;;;;;5035842;28;20116;-55